sensor_id;sensor_type;location;lat;lon;timestamp;temperature;humidity
2907;DHT22;1463;51.070;16.998;2023-07-31T00:01:52;18.70;99.90
2907;DHT22;1463;51.070;16.998;2023-07-31T00:04:22;18.60;99.90
2907;DHT22;1463;51.070;16.998;2023-07-31T00:06:50;18.60;99.90
2907;DHT22;1463;51.070;16.998;2023-07-31T00:09:18;18.60;99.90
2907;DHT22;1463;51.070;16.998;2023-07-31T00:11:47;18.60;99.90
2907;DHT22;1463;51.070;16.998;2023-07-31T00:14:15;18.60;99.90
2907;DHT22;1463;51.070;16.998;2023-07-31T00:16:44;18.60;99.90
2907;DHT22;1463;51.070;16.998;2023-07-31T00:19:16;18.50;99.90
2907;DHT22;1463;51.070;16.998;2023-07-31T00:21:45;18.50;99.90
2907;DHT22;1463;51.070;16.998;2023-07-31T00:24:14;18.50;99.90
2907;DHT22;1463;51.070;16.998;2023-07-31T00:26:42;18.50;99.90
2907;DHT22;1463;51.070;16.998;2023-07-31T00:29:10;18.50;99.90
2907;DHT22;1463;51.070;16.998;2023-07-31T00:31:38;18.50;99.90
2907;DHT22;1463;51.070;16.998;2023-07-31T00:34:24;18.50;99.90
2907;DHT22;1463;51.070;16.998;2023-07-31T00:36:54;18.50;99.90
2907;DHT22;1463;51.070;16.998;2023-07-31T00:39:21;18.50;99.90
2907;DHT22;1463;51.070;16.998;2023-07-31T00:42:02;18.50;99.90
2907;DHT22;1463;51.070;16.998;2023-07-31T00:44:30;18.40;99.90
2907;DHT22;1463;51.070;16.998;2023-07-31T00:47:00;18.40;99.90
2907;DHT22;1463;51.070;16.998;2023-07-31T00:49:28;18.50;99.90
2907;DHT22;1463;51.070;16.998;2023-07-31T00:51:59;18.40;99.90
2907;DHT22;1463;51.070;16.998;2023-07-31T00:54:30;18.40;99.90
2907;DHT22;1463;51.070;16.998;2023-07-31T00:56:58;18.40;99.90
2907;DHT22;1463;51.070;16.998;2023-07-31T00:59:27;18.40;99.90
2907;DHT22;1463;51.070;16.998;2023-07-31T01:01:57;18.40;99.90
2907;DHT22;1463;51.070;16.998;2023-07-31T01:04:43;18.40;99.90
2907;DHT22;1463;51.070;16.998;2023-07-31T01:07:22;18.40;99.90
2907;DHT22;1463;51.070;16.998;2023-07-31T01:10:02;18.40;99.90
2907;DHT22;1463;51.070;16.998;2023-07-31T01:12:32;18.30;99.90
2907;DHT22;1463;51.070;16.998;2023-07-31T01:15:05;18.40;99.90
2907;DHT22;1463;51.070;16.998;2023-07-31T01:17:42;18.40;99.90
2907;DHT22;1463;51.070;16.998;2023-07-31T01:20:13;18.30;99.90
2907;DHT22;1463;51.070;16.998;2023-07-31T01:26:07;18.30;99.90
2907;DHT22;1463;51.070;16.998;2023-07-31T01:28:43;18.30;99.90
2907;DHT22;1463;51.070;16.998;2023-07-31T01:31:31;18.40;99.90
2907;DHT22;1463;51.070;16.998;2023-07-31T01:34:01;18.40;99.90
2907;DHT22;1463;51.070;16.998;2023-07-31T01:36:30;18.40;99.90
2907;DHT22;1463;51.070;16.998;2023-07-31T01:38:59;18.30;99.90
2907;DHT22;1463;51.070;16.998;2023-07-31T01:41:33;18.30;99.90
2907;DHT22;1463;51.070;16.998;2023-07-31T01:44:02;18.30;99.90
2907;DHT22;1463;51.070;16.998;2023-07-31T01:46:30;18.30;99.90
2907;DHT22;1463;51.070;16.998;2023-07-31T01:48:58;18.30;99.90
2907;DHT22;1463;51.070;16.998;2023-07-31T01:51:27;18.30;99.90
2907;DHT22;1463;51.070;16.998;2023-07-31T01:53:55;18.30;99.90
2907;DHT22;1463;51.070;16.998;2023-07-31T01:56:26;18.40;99.90
2907;DHT22;1463;51.070;16.998;2023-07-31T01:58:56;18.40;99.90
2907;DHT22;1463;51.070;16.998;2023-07-31T02:01:24;18.50;99.90
2907;DHT22;1463;51.070;16.998;2023-07-31T02:03:52;18.50;99.90
2907;DHT22;1463;51.070;16.998;2023-07-31T02:06:21;18.50;99.90
2907;DHT22;1463;51.070;16.998;2023-07-31T02:08:49;18.50;99.90
2907;DHT22;1463;51.070;16.998;2023-07-31T02:11:18;18.50;99.90
2907;DHT22;1463;51.070;16.998;2023-07-31T02:13:46;18.50;99.90
2907;DHT22;1463;51.070;16.998;2023-07-31T02:16:16;18.50;99.90
2907;DHT22;1463;51.070;16.998;2023-07-31T02:18:44;18.50;99.90
2907;DHT22;1463;51.070;16.998;2023-07-31T02:21:30;18.40;99.90
2907;DHT22;1463;51.070;16.998;2023-07-31T02:23:58;18.40;99.90
2907;DHT22;1463;51.070;16.998;2023-07-31T02:26:27;18.30;99.90
2907;DHT22;1463;51.070;16.998;2023-07-31T02:28:55;18.30;99.90
2907;DHT22;1463;51.070;16.998;2023-07-31T02:31:24;18.30;99.90
2907;DHT22;1463;51.070;16.998;2023-07-31T02:33:53;18.30;99.90
2907;DHT22;1463;51.070;16.998;2023-07-31T02:36:21;18.30;99.90
2907;DHT22;1463;51.070;16.998;2023-07-31T02:38:50;18.30;99.90
2907;DHT22;1463;51.070;16.998;2023-07-31T02:41:18;18.30;99.90
2907;DHT22;1463;51.070;16.998;2023-07-31T02:43:45;18.30;99.90
2907;DHT22;1463;51.070;16.998;2023-07-31T02:46:14;18.30;99.90
2907;DHT22;1463;51.070;16.998;2023-07-31T02:48:44;18.30;99.90
2907;DHT22;1463;51.070;16.998;2023-07-31T02:51:12;18.30;99.90
2907;DHT22;1463;51.070;16.998;2023-07-31T02:53:40;18.30;99.90
2907;DHT22;1463;51.070;16.998;2023-07-31T02:56:09;18.30;99.90
2907;DHT22;1463;51.070;16.998;2023-07-31T02:58:38;18.30;99.90
2907;DHT22;1463;51.070;16.998;2023-07-31T03:01:06;18.20;99.90
2907;DHT22;1463;51.070;16.998;2023-07-31T03:03:34;18.20;99.90
2907;DHT22;1463;51.070;16.998;2023-07-31T03:06:04;18.20;99.90
2907;DHT22;1463;51.070;16.998;2023-07-31T03:08:33;18.20;99.90
2907;DHT22;1463;51.070;16.998;2023-07-31T03:11:01;18.30;99.90
2907;DHT22;1463;51.070;16.998;2023-07-31T03:13:29;18.20;99.90
2907;DHT22;1463;51.070;16.998;2023-07-31T03:15:57;18.20;99.90
2907;DHT22;1463;51.070;16.998;2023-07-31T03:18:25;18.20;99.90
2907;DHT22;1463;51.070;16.998;2023-07-31T03:20:54;18.10;99.90
2907;DHT22;1463;51.070;16.998;2023-07-31T03:23:23;18.10;99.90
2907;DHT22;1463;51.070;16.998;2023-07-31T03:25:59;18.20;99.90
2907;DHT22;1463;51.070;16.998;2023-07-31T03:28:28;18.20;99.90
2907;DHT22;1463;51.070;16.998;2023-07-31T03:30:56;18.20;99.90
2907;DHT22;1463;51.070;16.998;2023-07-31T03:33:32;18.10;99.90
2907;DHT22;1463;51.070;16.998;2023-07-31T03:36:00;18.10;99.90
2907;DHT22;1463;51.070;16.998;2023-07-31T03:38:31;18.10;99.90
2907;DHT22;1463;51.070;16.998;2023-07-31T03:41:00;18.10;99.90
2907;DHT22;1463;51.070;16.998;2023-07-31T03:43:29;18.00;99.90
2907;DHT22;1463;51.070;16.998;2023-07-31T03:45:57;18.00;99.90
2907;DHT22;1463;51.070;16.998;2023-07-31T03:48:25;18.10;99.90
2907;DHT22;1463;51.070;16.998;2023-07-31T03:50:54;18.10;99.90
2907;DHT22;1463;51.070;16.998;2023-07-31T03:53:22;18.00;99.90
2907;DHT22;1463;51.070;16.998;2023-07-31T03:55:52;18.10;99.90
2907;DHT22;1463;51.070;16.998;2023-07-31T03:58:44;18.10;99.90
2907;DHT22;1463;51.070;16.998;2023-07-31T04:01:12;18.10;99.90
2907;DHT22;1463;51.070;16.998;2023-07-31T04:03:59;18.20;99.90
2907;DHT22;1463;51.070;16.998;2023-07-31T04:06:27;18.20;99.90
2907;DHT22;1463;51.070;16.998;2023-07-31T04:08:56;18.20;99.90
2907;DHT22;1463;51.070;16.998;2023-07-31T04:11:25;18.20;99.90
2907;DHT22;1463;51.070;16.998;2023-07-31T04:13:53;18.20;99.90
2907;DHT22;1463;51.070;16.998;2023-07-31T04:16:22;18.20;99.90
2907;DHT22;1463;51.070;16.998;2023-07-31T04:18:50;18.10;99.90
2907;DHT22;1463;51.070;16.998;2023-07-31T04:21:18;18.20;99.90
2907;DHT22;1463;51.070;16.998;2023-07-31T04:24:03;18.20;99.90
2907;DHT22;1463;51.070;16.998;2023-07-31T04:26:33;18.30;99.90
2907;DHT22;1463;51.070;16.998;2023-07-31T04:29:01;18.30;99.90
2907;DHT22;1463;51.070;16.998;2023-07-31T04:31:30;18.30;99.90
2907;DHT22;1463;51.070;16.998;2023-07-31T04:33:58;18.20;99.90
2907;DHT22;1463;51.070;16.998;2023-07-31T04:36:27;18.30;99.90
2907;DHT22;1463;51.070;16.998;2023-07-31T04:38:56;18.30;99.90
2907;DHT22;1463;51.070;16.998;2023-07-31T04:41:24;18.30;99.90
2907;DHT22;1463;51.070;16.998;2023-07-31T04:43:55;18.40;99.90
2907;DHT22;1463;51.070;16.998;2023-07-31T04:46:24;18.30;99.90
2907;DHT22;1463;51.070;16.998;2023-07-31T04:48:52;18.30;99.90
2907;DHT22;1463;51.070;16.998;2023-07-31T04:51:20;18.40;99.90
2907;DHT22;1463;51.070;16.998;2023-07-31T04:53:49;18.40;99.90
2907;DHT22;1463;51.070;16.998;2023-07-31T04:56:17;18.40;99.90
2907;DHT22;1463;51.070;16.998;2023-07-31T04:58:46;18.40;99.90
2907;DHT22;1463;51.070;16.998;2023-07-31T05:01:17;18.40;99.90
2907;DHT22;1463;51.070;16.998;2023-07-31T05:03:46;18.50;99.90
2907;DHT22;1463;51.070;16.998;2023-07-31T05:06:14;18.50;99.90
2907;DHT22;1463;51.070;16.998;2023-07-31T05:08:43;18.50;99.90
2907;DHT22;1463;51.070;16.998;2023-07-31T05:11:12;18.50;99.90
2907;DHT22;1463;51.070;16.998;2023-07-31T05:13:40;18.50;99.90
2907;DHT22;1463;51.070;16.998;2023-07-31T05:16:09;18.50;99.90
2907;DHT22;1463;51.070;16.998;2023-07-31T05:18:38;18.60;99.90
2907;DHT22;1463;51.070;16.998;2023-07-31T05:21:06;18.60;99.90
2907;DHT22;1463;51.070;16.998;2023-07-31T05:23:52;18.60;99.90
2907;DHT22;1463;51.070;16.998;2023-07-31T05:26:20;18.70;99.90
2907;DHT22;1463;51.070;16.998;2023-07-31T05:28:48;18.70;99.90
2907;DHT22;1463;51.070;16.998;2023-07-31T05:31:17;18.80;99.90
2907;DHT22;1463;51.070;16.998;2023-07-31T05:33:47;18.80;99.90
2907;DHT22;1463;51.070;16.998;2023-07-31T05:36:16;18.80;99.90
2907;DHT22;1463;51.070;16.998;2023-07-31T05:38:44;18.80;99.90
2907;DHT22;1463;51.070;16.998;2023-07-31T05:41:13;18.90;99.90
2907;DHT22;1463;51.070;16.998;2023-07-31T05:43:42;18.90;99.90
2907;DHT22;1463;51.070;16.998;2023-07-31T05:46:10;18.90;99.90
2907;DHT22;1463;51.070;16.998;2023-07-31T05:48:39;18.90;99.90
2907;DHT22;1463;51.070;16.998;2023-07-31T05:51:09;19.00;99.90
2907;DHT22;1463;51.070;16.998;2023-07-31T05:53:38;19.00;99.90
2907;DHT22;1463;51.070;16.998;2023-07-31T05:56:07;19.00;99.90
2907;DHT22;1463;51.070;16.998;2023-07-31T05:58:35;19.10;99.90
2907;DHT22;1463;51.070;16.998;2023-07-31T06:01:04;19.00;99.90
2907;DHT22;1463;51.070;16.998;2023-07-31T06:03:32;19.10;99.90
2907;DHT22;1463;51.070;16.998;2023-07-31T06:06:01;19.10;99.90
2907;DHT22;1463;51.070;16.998;2023-07-31T06:08:30;19.10;99.90
2907;DHT22;1463;51.070;16.998;2023-07-31T06:11:00;19.10;99.90
2907;DHT22;1463;51.070;16.998;2023-07-31T06:13:28;19.10;99.90
2907;DHT22;1463;51.070;16.998;2023-07-31T06:15:56;19.20;99.90
2907;DHT22;1463;51.070;16.998;2023-07-31T06:18:28;19.20;99.90
2907;DHT22;1463;51.070;16.998;2023-07-31T06:20:57;19.20;99.90
2907;DHT22;1463;51.070;16.998;2023-07-31T06:23:25;19.20;99.90
2907;DHT22;1463;51.070;16.998;2023-07-31T06:25:55;19.20;99.90
2907;DHT22;1463;51.070;16.998;2023-07-31T06:28:27;19.30;99.90
2907;DHT22;1463;51.070;16.998;2023-07-31T06:30:56;19.20;99.90
2907;DHT22;1463;51.070;16.998;2023-07-31T06:33:24;19.20;99.90
2907;DHT22;1463;51.070;16.998;2023-07-31T06:35:53;19.20;99.90
2907;DHT22;1463;51.070;16.998;2023-07-31T06:38:25;19.30;99.90
2907;DHT22;1463;51.070;16.998;2023-07-31T06:40:55;19.40;99.90
2907;DHT22;1463;51.070;16.998;2023-07-31T06:43:28;19.40;99.90
2907;DHT22;1463;51.070;16.998;2023-07-31T06:45:56;19.40;99.90
2907;DHT22;1463;51.070;16.998;2023-07-31T06:48:26;19.40;99.90
2907;DHT22;1463;51.070;16.998;2023-07-31T06:50:54;19.40;99.90
2907;DHT22;1463;51.070;16.998;2023-07-31T06:53:23;19.40;99.90
2907;DHT22;1463;51.070;16.998;2023-07-31T06:55:51;19.50;99.90
2907;DHT22;1463;51.070;16.998;2023-07-31T06:58:23;19.50;99.90
2907;DHT22;1463;51.070;16.998;2023-07-31T07:00:51;19.50;99.90
2907;DHT22;1463;51.070;16.998;2023-07-31T07:03:19;19.40;99.90
2907;DHT22;1463;51.070;16.998;2023-07-31T07:05:48;19.50;99.90
2907;DHT22;1463;51.070;16.998;2023-07-31T07:08:17;19.50;99.90
2907;DHT22;1463;51.070;16.998;2023-07-31T07:10:46;19.50;99.90
2907;DHT22;1463;51.070;16.998;2023-07-31T07:13:14;19.50;99.90
2907;DHT22;1463;51.070;16.998;2023-07-31T07:15:50;19.50;99.90
2907;DHT22;1463;51.070;16.998;2023-07-31T07:18:19;19.60;99.90
2907;DHT22;1463;51.070;16.998;2023-07-31T07:20:50;19.60;99.90
2907;DHT22;1463;51.070;16.998;2023-07-31T07:23:19;19.60;99.90
2907;DHT22;1463;51.070;16.998;2023-07-31T07:25:48;19.70;99.90
2907;DHT22;1463;51.070;16.998;2023-07-31T07:28:16;19.70;99.90
2907;DHT22;1463;51.070;16.998;2023-07-31T07:30:44;19.70;99.90
2907;DHT22;1463;51.070;16.998;2023-07-31T07:33:14;19.70;99.90
2907;DHT22;1463;51.070;16.998;2023-07-31T07:35:43;19.80;99.90
2907;DHT22;1463;51.070;16.998;2023-07-31T07:38:13;19.80;99.90
2907;DHT22;1463;51.070;16.998;2023-07-31T07:40:42;19.80;99.90
2907;DHT22;1463;51.070;16.998;2023-07-31T07:43:24;19.80;99.90
2907;DHT22;1463;51.070;16.998;2023-07-31T07:45:52;19.90;99.90
2907;DHT22;1463;51.070;16.998;2023-07-31T07:48:22;19.90;99.90
2907;DHT22;1463;51.070;16.998;2023-07-31T07:50:51;20.10;99.90
2907;DHT22;1463;51.070;16.998;2023-07-31T07:53:20;20.10;99.90
2907;DHT22;1463;51.070;16.998;2023-07-31T07:55:48;20.10;99.90
2907;DHT22;1463;51.070;16.998;2023-07-31T07:58:17;20.20;99.90
2907;DHT22;1463;51.070;16.998;2023-07-31T08:00:49;20.20;99.90
2907;DHT22;1463;51.070;16.998;2023-07-31T08:03:18;20.30;99.90
2907;DHT22;1463;51.070;16.998;2023-07-31T08:05:48;20.40;99.90
2907;DHT22;1463;51.070;16.998;2023-07-31T08:08:17;20.40;99.90
2907;DHT22;1463;51.070;16.998;2023-07-31T08:10:46;20.50;99.90
2907;DHT22;1463;51.070;16.998;2023-07-31T08:13:15;20.50;99.90
2907;DHT22;1463;51.070;16.998;2023-07-31T08:15:44;20.60;99.90
2907;DHT22;1463;51.070;16.998;2023-07-31T08:18:12;20.60;99.90
2907;DHT22;1463;51.070;16.998;2023-07-31T08:20:40;20.70;99.90
2907;DHT22;1463;51.070;16.998;2023-07-31T08:23:11;20.80;99.90
2907;DHT22;1463;51.070;16.998;2023-07-31T08:25:40;20.90;99.90
2907;DHT22;1463;51.070;16.998;2023-07-31T08:28:08;21.10;99.90
2907;DHT22;1463;51.070;16.998;2023-07-31T08:30:37;21.20;99.90
2907;DHT22;1463;51.070;16.998;2023-07-31T08:33:23;21.20;99.90
2907;DHT22;1463;51.070;16.998;2023-07-31T08:35:50;21.20;99.90
2907;DHT22;1463;51.070;16.998;2023-07-31T08:38:20;21.10;99.90
2907;DHT22;1463;51.070;16.998;2023-07-31T08:40:51;21.10;99.90
2907;DHT22;1463;51.070;16.998;2023-07-31T08:43:20;21.10;99.90
2907;DHT22;1463;51.070;16.998;2023-07-31T08:45:50;21.20;99.90
2907;DHT22;1463;51.070;16.998;2023-07-31T08:48:18;21.10;99.90
2907;DHT22;1463;51.070;16.998;2023-07-31T08:50:46;21.00;99.90
2907;DHT22;1463;51.070;16.998;2023-07-31T08:53:14;20.90;99.90
2907;DHT22;1463;51.070;16.998;2023-07-31T08:55:44;20.90;99.90
2907;DHT22;1463;51.070;16.998;2023-07-31T08:58:13;20.90;99.90
2907;DHT22;1463;51.070;16.998;2023-07-31T09:00:41;20.80;99.90
2907;DHT22;1463;51.070;16.998;2023-07-31T09:03:14;20.80;99.90
2907;DHT22;1463;51.070;16.998;2023-07-31T09:05:43;20.60;99.90
2907;DHT22;1463;51.070;16.998;2023-07-31T09:08:11;20.60;99.90
2907;DHT22;1463;51.070;16.998;2023-07-31T09:10:43;20.60;99.90
2907;DHT22;1463;51.070;16.998;2023-07-31T09:13:12;20.60;99.90
2907;DHT22;1463;51.070;16.998;2023-07-31T09:15:41;20.70;99.90
2907;DHT22;1463;51.070;16.998;2023-07-31T09:18:10;20.70;99.90
2907;DHT22;1463;51.070;16.998;2023-07-31T09:20:37;20.70;99.90
2907;DHT22;1463;51.070;16.998;2023-07-31T09:23:09;20.70;99.90
2907;DHT22;1463;51.070;16.998;2023-07-31T09:25:38;20.60;99.90
2907;DHT22;1463;51.070;16.998;2023-07-31T09:28:09;20.60;99.90
2907;DHT22;1463;51.070;16.998;2023-07-31T09:30:47;20.60;99.90
2907;DHT22;1463;51.070;16.998;2023-07-31T09:33:15;20.50;99.90
2907;DHT22;1463;51.070;16.998;2023-07-31T09:35:42;20.50;99.90
2907;DHT22;1463;51.070;16.998;2023-07-31T09:38:11;20.50;99.90
2907;DHT22;1463;51.070;16.998;2023-07-31T09:40:41;20.40;99.90
2907;DHT22;1463;51.070;16.998;2023-07-31T09:43:12;20.50;99.90
2907;DHT22;1463;51.070;16.998;2023-07-31T09:45:41;20.40;99.90
2907;DHT22;1463;51.070;16.998;2023-07-31T09:48:10;20.40;99.90
2907;DHT22;1463;51.070;16.998;2023-07-31T09:50:38;20.40;99.90
2907;DHT22;1463;51.070;16.998;2023-07-31T09:53:08;20.50;99.90
2907;DHT22;1463;51.070;16.998;2023-07-31T09:55:36;20.50;99.90
2907;DHT22;1463;51.070;16.998;2023-07-31T09:58:05;20.50;99.90
2907;DHT22;1463;51.070;16.998;2023-07-31T10:00:35;20.50;99.90
2907;DHT22;1463;51.070;16.998;2023-07-31T10:03:05;20.50;99.90
2907;DHT22;1463;51.070;16.998;2023-07-31T10:05:36;20.60;99.90
2907;DHT22;1463;51.070;16.998;2023-07-31T10:08:04;20.60;99.90
2907;DHT22;1463;51.070;16.998;2023-07-31T10:10:33;20.50;99.90
2907;DHT22;1463;51.070;16.998;2023-07-31T10:13:04;20.50;99.90
2907;DHT22;1463;51.070;16.998;2023-07-31T10:15:34;20.50;99.90
2907;DHT22;1463;51.070;16.998;2023-07-31T10:18:03;20.50;99.90
2907;DHT22;1463;51.070;16.998;2023-07-31T10:20:34;20.50;99.90
2907;DHT22;1463;51.070;16.998;2023-07-31T10:26:26;20.60;99.90
2907;DHT22;1463;51.070;16.998;2023-07-31T10:28:55;20.60;99.90
2907;DHT22;1463;51.070;16.998;2023-07-31T10:31:25;20.60;99.90
2907;DHT22;1463;51.070;16.998;2023-07-31T10:33:56;20.60;99.90
2907;DHT22;1463;51.070;16.998;2023-07-31T10:36:29;20.60;99.90
2907;DHT22;1463;51.070;16.998;2023-07-31T10:38:56;20.60;99.90
2907;DHT22;1463;51.070;16.998;2023-07-31T10:41:39;20.60;99.90
2907;DHT22;1463;51.070;16.998;2023-07-31T10:44:17;20.60;99.90
2907;DHT22;1463;51.070;16.998;2023-07-31T10:46:47;20.60;99.90
2907;DHT22;1463;51.070;16.998;2023-07-31T10:49:21;20.60;99.90
2907;DHT22;1463;51.070;16.998;2023-07-31T10:51:49;20.50;99.90
2907;DHT22;1463;51.070;16.998;2023-07-31T10:54:16;20.60;99.90
2907;DHT22;1463;51.070;16.998;2023-07-31T10:56:45;20.60;99.90
2907;DHT22;1463;51.070;16.998;2023-07-31T10:59:13;20.70;99.90
2907;DHT22;1463;51.070;16.998;2023-07-31T11:01:55;20.70;99.90
2907;DHT22;1463;51.070;16.998;2023-07-31T11:04:25;20.80;99.90
2907;DHT22;1463;51.070;16.998;2023-07-31T11:06:56;20.90;99.90
2907;DHT22;1463;51.070;16.998;2023-07-31T11:09:27;20.90;99.90
2907;DHT22;1463;51.070;16.998;2023-07-31T11:11:56;21.00;99.90
2907;DHT22;1463;51.070;16.998;2023-07-31T11:14:23;21.10;99.90
2907;DHT22;1463;51.070;16.998;2023-07-31T11:16:53;21.20;99.90
2907;DHT22;1463;51.070;16.998;2023-07-31T11:19:24;21.30;99.90
2907;DHT22;1463;51.070;16.998;2023-07-31T11:21:52;21.40;99.90
2907;DHT22;1463;51.070;16.998;2023-07-31T11:24:20;21.50;99.90
2907;DHT22;1463;51.070;16.998;2023-07-31T11:26:49;21.60;99.90
2907;DHT22;1463;51.070;16.998;2023-07-31T11:29:17;21.60;99.90
2907;DHT22;1463;51.070;16.998;2023-07-31T11:31:46;21.80;99.90
2907;DHT22;1463;51.070;16.998;2023-07-31T11:34:16;21.70;99.90
2907;DHT22;1463;51.070;16.998;2023-07-31T11:36:53;21.70;99.90
2907;DHT22;1463;51.070;16.998;2023-07-31T11:39:21;21.80;99.90
2907;DHT22;1463;51.070;16.998;2023-07-31T11:41:49;21.70;99.90
2907;DHT22;1463;51.070;16.998;2023-07-31T11:44:16;21.60;99.90
2907;DHT22;1463;51.070;16.998;2023-07-31T11:46:44;21.60;99.90
2907;DHT22;1463;51.070;16.998;2023-07-31T11:49:12;21.70;99.90
2907;DHT22;1463;51.070;16.998;2023-07-31T11:51:41;21.80;99.90
2907;DHT22;1463;51.070;16.998;2023-07-31T11:54:09;21.90;99.90
2907;DHT22;1463;51.070;16.998;2023-07-31T11:56:38;21.90;99.90
2907;DHT22;1463;51.070;16.998;2023-07-31T11:59:06;22.00;99.90
2907;DHT22;1463;51.070;16.998;2023-07-31T12:01:34;22.20;99.90
2907;DHT22;1463;51.070;16.998;2023-07-31T12:04:02;22.30;99.90
2907;DHT22;1463;51.070;16.998;2023-07-31T12:06:33;22.30;99.90
2907;DHT22;1463;51.070;16.998;2023-07-31T12:09:04;22.30;99.90
2907;DHT22;1463;51.070;16.998;2023-07-31T12:11:42;22.30;99.90
2907;DHT22;1463;51.070;16.998;2023-07-31T12:14:20;22.20;99.90
2907;DHT22;1463;51.070;16.998;2023-07-31T12:16:48;22.10;99.90
2907;DHT22;1463;51.070;16.998;2023-07-31T12:19:19;22.10;99.90
2907;DHT22;1463;51.070;16.998;2023-07-31T12:21:47;22.10;99.90
2907;DHT22;1463;51.070;16.998;2023-07-31T12:24:18;22.10;99.90
2907;DHT22;1463;51.070;16.998;2023-07-31T12:26:46;22.10;99.90
2907;DHT22;1463;51.070;16.998;2023-07-31T12:29:13;22.10;99.90
2907;DHT22;1463;51.070;16.998;2023-07-31T12:31:41;22.30;99.90
2907;DHT22;1463;51.070;16.998;2023-07-31T12:34:15;22.30;99.90
2907;DHT22;1463;51.070;16.998;2023-07-31T12:36:44;22.40;99.90
2907;DHT22;1463;51.070;16.998;2023-07-31T12:39:12;22.50;99.90
2907;DHT22;1463;51.070;16.998;2023-07-31T12:41:41;22.40;99.90
2907;DHT22;1463;51.070;16.998;2023-07-31T12:44:09;22.40;99.90
2907;DHT22;1463;51.070;16.998;2023-07-31T12:46:37;22.30;99.90
2907;DHT22;1463;51.070;16.998;2023-07-31T12:49:04;22.40;99.90
2907;DHT22;1463;51.070;16.998;2023-07-31T12:51:32;22.30;99.90
2907;DHT22;1463;51.070;16.998;2023-07-31T12:53:59;22.40;99.90
2907;DHT22;1463;51.070;16.998;2023-07-31T12:56:27;22.30;99.90
2907;DHT22;1463;51.070;16.998;2023-07-31T12:58:55;22.20;99.90
2907;DHT22;1463;51.070;16.998;2023-07-31T13:01:23;22.20;99.90
2907;DHT22;1463;51.070;16.998;2023-07-31T13:03:50;22.20;99.90
2907;DHT22;1463;51.070;16.998;2023-07-31T13:06:18;22.30;99.90
2907;DHT22;1463;51.070;16.998;2023-07-31T13:08:45;22.30;99.90
2907;DHT22;1463;51.070;16.998;2023-07-31T13:11:13;22.30;99.90
2907;DHT22;1463;51.070;16.998;2023-07-31T13:13:40;22.30;99.90
2907;DHT22;1463;51.070;16.998;2023-07-31T13:16:09;22.30;99.90
2907;DHT22;1463;51.070;16.998;2023-07-31T13:18:37;22.40;99.90
2907;DHT22;1463;51.070;16.998;2023-07-31T13:21:04;22.50;99.90
2907;DHT22;1463;51.070;16.998;2023-07-31T13:23:32;22.40;99.90
2907;DHT22;1463;51.070;16.998;2023-07-31T13:25:59;22.40;99.90
2907;DHT22;1463;51.070;16.998;2023-07-31T13:28:27;22.40;99.90
2907;DHT22;1463;51.070;16.998;2023-07-31T13:30:54;22.40;99.90
2907;DHT22;1463;51.070;16.998;2023-07-31T13:33:23;22.50;99.90
2907;DHT22;1463;51.070;16.998;2023-07-31T13:35:50;22.50;99.90
2907;DHT22;1463;51.070;16.998;2023-07-31T13:38:18;22.50;99.90
2907;DHT22;1463;51.070;16.998;2023-07-31T13:40:45;22.60;99.90
2907;DHT22;1463;51.070;16.998;2023-07-31T13:43:13;22.70;99.90
2907;DHT22;1463;51.070;16.998;2023-07-31T13:45:40;22.70;99.90
2907;DHT22;1463;51.070;16.998;2023-07-31T13:48:08;22.70;99.90
2907;DHT22;1463;51.070;16.998;2023-07-31T13:50:36;22.60;99.90
2907;DHT22;1463;51.070;16.998;2023-07-31T13:53:04;22.60;99.90
2907;DHT22;1463;51.070;16.998;2023-07-31T13:55:31;22.60;99.90
2907;DHT22;1463;51.070;16.998;2023-07-31T13:57:59;22.60;99.90
2907;DHT22;1463;51.070;16.998;2023-07-31T14:00:26;22.60;99.90
2907;DHT22;1463;51.070;16.998;2023-07-31T14:02:54;22.60;99.90
2907;DHT22;1463;51.070;16.998;2023-07-31T14:05:22;22.60;99.90
2907;DHT22;1463;51.070;16.998;2023-07-31T14:07:52;22.70;99.90
2907;DHT22;1463;51.070;16.998;2023-07-31T14:10:53;22.80;99.90
2907;DHT22;1463;51.070;16.998;2023-07-31T14:13:34;22.80;99.90
2907;DHT22;1463;51.070;16.998;2023-07-31T14:16:14;22.90;99.90
2907;DHT22;1463;51.070;16.998;2023-07-31T14:18:46;22.90;99.90
2907;DHT22;1463;51.070;16.998;2023-07-31T14:21:14;22.80;99.90
2907;DHT22;1463;51.070;16.998;2023-07-31T14:23:43;22.90;99.90
2907;DHT22;1463;51.070;16.998;2023-07-31T14:26:11;22.80;99.90
2907;DHT22;1463;51.070;16.998;2023-07-31T14:28:39;22.80;99.90
2907;DHT22;1463;51.070;16.998;2023-07-31T14:31:06;22.90;99.90
2907;DHT22;1463;51.070;16.998;2023-07-31T14:33:34;22.80;99.90
2907;DHT22;1463;51.070;16.998;2023-07-31T14:36:02;22.70;99.90
2907;DHT22;1463;51.070;16.998;2023-07-31T14:38:29;22.70;99.90
2907;DHT22;1463;51.070;16.998;2023-07-31T14:40:58;22.70;99.90
2907;DHT22;1463;51.070;16.998;2023-07-31T14:43:26;22.70;99.90
2907;DHT22;1463;51.070;16.998;2023-07-31T14:45:53;22.70;99.90
2907;DHT22;1463;51.070;16.998;2023-07-31T14:48:23;22.60;99.90
2907;DHT22;1463;51.070;16.998;2023-07-31T14:50:51;22.60;99.90
2907;DHT22;1463;51.070;16.998;2023-07-31T14:53:18;22.60;99.90
2907;DHT22;1463;51.070;16.998;2023-07-31T14:55:46;22.70;99.90
2907;DHT22;1463;51.070;16.998;2023-07-31T14:58:15;22.60;99.90
2907;DHT22;1463;51.070;16.998;2023-07-31T15:00:44;22.70;99.90
2907;DHT22;1463;51.070;16.998;2023-07-31T15:03:11;22.80;99.90
2907;DHT22;1463;51.070;16.998;2023-07-31T15:05:39;22.80;99.90
2907;DHT22;1463;51.070;16.998;2023-07-31T15:08:06;22.80;99.90
2907;DHT22;1463;51.070;16.998;2023-07-31T15:10:34;22.80;99.90
2907;DHT22;1463;51.070;16.998;2023-07-31T15:13:01;22.80;99.90
2907;DHT22;1463;51.070;16.998;2023-07-31T15:15:31;22.80;99.90
2907;DHT22;1463;51.070;16.998;2023-07-31T15:17:58;22.80;99.90
2907;DHT22;1463;51.070;16.998;2023-07-31T15:20:26;22.70;99.90
2907;DHT22;1463;51.070;16.998;2023-07-31T15:22:54;22.80;99.90
2907;DHT22;1463;51.070;16.998;2023-07-31T15:25:23;22.80;99.90
2907;DHT22;1463;51.070;16.998;2023-07-31T15:27:52;22.80;99.90
2907;DHT22;1463;51.070;16.998;2023-07-31T15:30:20;22.80;99.90
2907;DHT22;1463;51.070;16.998;2023-07-31T15:32:50;22.70;99.90
2907;DHT22;1463;51.070;16.998;2023-07-31T15:35:19;22.70;99.90
2907;DHT22;1463;51.070;16.998;2023-07-31T15:37:48;22.70;99.90
2907;DHT22;1463;51.070;16.998;2023-07-31T15:43:40;22.60;99.90
2907;DHT22;1463;51.070;16.998;2023-07-31T15:46:19;22.80;99.90
2907;DHT22;1463;51.070;16.998;2023-07-31T15:48:50;22.80;99.90
2907;DHT22;1463;51.070;16.998;2023-07-31T15:51:20;22.80;99.90
2907;DHT22;1463;51.070;16.998;2023-07-31T15:53:50;22.80;99.90
2907;DHT22;1463;51.070;16.998;2023-07-31T15:56:20;22.70;99.90
2907;DHT22;1463;51.070;16.998;2023-07-31T15:58:48;22.70;99.90
2907;DHT22;1463;51.070;16.998;2023-07-31T16:01:17;22.70;99.90
2907;DHT22;1463;51.070;16.998;2023-07-31T16:07:23;22.90;99.90
2907;DHT22;1463;51.070;16.998;2023-07-31T16:10:01;22.80;99.90
2907;DHT22;1463;51.070;16.998;2023-07-31T16:12:32;22.90;99.90
2907;DHT22;1463;51.070;16.998;2023-07-31T16:15:02;22.80;99.90